createdAt,value
2022-08-31T00:01:39.930Z,99355.81
2022-08-31T00:04:27.351Z,99351.09
2022-08-31T00:07:12.791Z,99343.56
2022-08-31T00:09:58.292Z,99345.53
2022-08-31T00:12:45.969Z,99349.53
2022-08-31T00:15:31.139Z,99346.75
2022-08-31T00:18:17.238Z,99343.19
2022-08-31T00:21:03.477Z,99345.19
2022-08-31T00:23:50.024Z,99345.63
2022-08-31T00:26:36.317Z,99348.41
2022-08-31T00:29:21.818Z,99338.81
2022-08-31T00:32:07.384Z,99348.81
2022-08-31T00:34:53.270Z,99344.13
2022-08-31T00:37:40.071Z,99345.66
2022-08-31T00:40:26.201Z,99344.91
2022-08-31T00:43:49.214Z,99348.81
2022-08-31T00:46:38.476Z,99356.81
2022-08-31T00:49:28.382Z,99360.03
2022-08-31T00:52:18.163Z,99358.38
2022-08-31T00:55:12.568Z,99348.09
2022-08-31T00:58:01.631Z,99352.09
2022-08-31T01:00:47.740Z,99360.81
2022-08-31T01:03:33.293Z,99360.09
2022-08-31T01:06:19.187Z,99360.88
2022-08-31T01:09:07.196Z,99360.88
2022-08-31T01:11:54.320Z,99360.94
2022-08-31T01:14:40.220Z,99363.38
2022-08-31T01:17:26.524Z,99358.59
2022-08-31T01:20:48.590Z,99364.50
2022-08-31T01:23:42.946Z,99361.00
2022-08-31T01:26:29.832Z,99357.84
2022-08-31T01:29:17.333Z,99357.44
2022-08-31T01:32:04.477Z,99359.44
2022-08-31T01:34:49.637Z,99357.09
2022-08-31T01:37:34.842Z,99356.31
2022-08-31T01:40:30.290Z,99367.84
2022-08-31T01:43:16.122Z,99371.41
2022-08-31T01:46:10.692Z,99363.47
2022-08-31T01:48:56.480Z,99359.13
2022-08-31T01:51:42.459Z,99364.75
2022-08-31T01:54:27.830Z,99368.72
2022-08-31T01:57:15.907Z,99361.56
2022-08-31T02:00:39.450Z,99360.00
2022-08-31T02:03:25.406Z,99353.22
2022-08-31T02:06:13.052Z,99352.84
2022-08-31T02:08:59.637Z,99344.50
2022-08-31T02:11:45.065Z,99348.50
2022-08-31T02:14:30.307Z,99353.28
2022-08-31T02:17:16.684Z,99349.34
2022-08-31T02:20:02.026Z,99345.00
2022-08-31T02:22:48.752Z,99335.44
2022-08-31T02:25:34.459Z,99346.56
2022-08-31T02:28:21.659Z,99340.22
2022-08-31T02:31:07.155Z,99339.84
2022-08-31T02:34:03.222Z,99329.19
2022-08-31T02:36:48.823Z,99328.38
2022-08-31T02:39:34.078Z,99331.16
2022-08-31T02:42:19.452Z,99329.66
2022-08-31T02:45:05.970Z,99330.50
2022-08-31T02:47:51.371Z,99326.59
2022-08-31T02:50:46.226Z,99327.38
2022-08-31T02:53:32.167Z,99330.94
2022-08-31T02:56:17.874Z,99334.44
2022-08-31T02:59:03.525Z,99323.31
2022-08-31T03:01:50.204Z,99332.06
2022-08-31T03:04:36.246Z,99336.78
2022-08-31T03:07:21.355Z,99335.22
2022-08-31T03:10:09.678Z,99338.00
2022-08-31T03:12:55.468Z,99343.13
2022-08-31T03:15:42.410Z,99329.66
2022-08-31T03:18:28.204Z,99328.09
2022-08-31T03:21:14.162Z,99335.28
2022-08-31T03:23:59.800Z,99334.06
2022-08-31T03:26:46.109Z,99335.28
2022-08-31T03:29:33.300Z,99342.41
2022-08-31T03:32:41.797Z,99327.38
2022-08-31T03:35:27.122Z,99333.69
2022-08-31T03:38:14.116Z,99328.09
2022-08-31T03:41:02.113Z,99327.22
2022-08-31T03:43:48.420Z,99330.38
2022-08-31T03:46:34.564Z,99331.50
2022-08-31T03:49:20.484Z,99331.88
2022-08-31T03:52:23.417Z,99334.25
2022-08-31T03:55:20.523Z,99332.19
2022-08-31T03:58:07.671Z,99339.31
2022-08-31T04:00:54.294Z,99334.59
2022-08-31T04:04:05.970Z,99344.00
2022-08-31T04:07:21.516Z,99338.38
2022-08-31T04:10:23.188Z,99339.88
2022-08-31T04:13:30.238Z,99338.34
2022-08-31T04:16:45.097Z,99339.75
2022-08-31T04:19:42.795Z,99351.31
2022-08-31T04:22:47.429Z,99358.03
2022-08-31T04:25:53.166Z,99349.69
2022-08-31T04:28:38.612Z,99356.06
2022-08-31T04:31:25.701Z,99356.88
2022-08-31T04:34:11.617Z,99366.88
2022-08-31T04:36:56.986Z,99360.94
2022-08-31T04:39:50.508Z,99360.50
2022-08-31T04:42:37.248Z,99361.31
2022-08-31T04:45:24.468Z,99359.78
2022-08-31T04:48:11.002Z,99364.56
2022-08-31T04:51:08.846Z,99365.47
2022-08-31T04:53:54.741Z,99359.50
2022-08-31T04:56:43.850Z,99361.41
2022-08-31T04:59:29.863Z,99368.22
2022-08-31T05:02:44.059Z,99369.41
2022-08-31T05:05:38.733Z,99374.19
2022-08-31T05:08:24.543Z,99372.19
2022-08-31T05:11:24.275Z,99378.09
2022-08-31T05:14:11.069Z,99381.69
2022-08-31T05:17:01.453Z,99385.31
2022-08-31T05:19:51.867Z,99387.72
2022-08-31T05:22:37.017Z,99390.50
2022-08-31T05:25:22.344Z,99398.50
2022-08-31T05:28:08.179Z,99388.22
2022-08-31T05:30:53.353Z,99400.22
2022-08-31T05:33:48.820Z,99386.72
2022-08-31T05:36:36.033Z,99397.84
2022-08-31T05:39:24.113Z,99394.69
2022-08-31T05:42:09.815Z,99388.34
2022-08-31T05:44:55.945Z,99399.91
2022-08-31T05:47:41.847Z,99395.56
2022-08-31T05:50:27.142Z,99394.03
2022-08-31T05:53:13.117Z,99397.59
2022-08-31T05:56:04.562Z,99411.50
2022-08-31T05:58:51.457Z,99410.78
2022-08-31T06:01:39.669Z,99406.44
2022-08-31T06:04:31.512Z,99406.44
2022-08-31T06:07:17.351Z,99411.19
2022-08-31T06:10:11.838Z,99402.94
2022-08-31T06:12:59.231Z,99410.81
2022-08-31T06:15:45.104Z,99409.25
2022-08-31T06:18:31.026Z,99416.81
2022-08-31T06:21:26.123Z,99423.94
2022-08-31T06:24:12.987Z,99420.81
2022-08-31T06:27:00.106Z,99431.56
2022-08-31T06:29:55.118Z,99426.84
2022-08-31T06:32:40.640Z,99423.28
2022-08-31T06:35:26.448Z,99432.81
2022-08-31T06:38:34.929Z,99439.59
2022-08-31T06:41:46.565Z,99432.81
2022-08-31T06:44:59.064Z,99439.59
2022-08-31T06:48:13.379Z,99435.59
2022-08-31T06:50:59.679Z,99436.03
2022-08-31T06:53:45.996Z,99439.22
2022-08-31T06:57:02.810Z,99432.91
2022-08-31T07:00:09.092Z,99432.09
2022-08-31T07:03:20.477Z,99431.31
2022-08-31T07:06:09.612Z,99429.75
2022-08-31T07:08:58.860Z,99435.66
2022-08-31T07:11:46.863Z,99436.50
2022-08-31T07:14:32.567Z,99437.31
2022-08-31T07:17:19.000Z,99434.16
2022-08-31T07:20:05.085Z,99436.50
2022-08-31T07:22:50.837Z,99438.88
2022-08-31T07:25:51.922Z,99443.19
2022-08-31T07:28:38.684Z,99442.06
2022-08-31T07:31:33.237Z,99442.06
2022-08-31T07:34:21.739Z,99441.28
2022-08-31T07:37:44.720Z,99448.06
2022-08-31T07:40:49.978Z,99449.19
2022-08-31T07:43:37.198Z,99450.75
2022-08-31T07:46:30.123Z,99455.91
2022-08-31T07:49:16.617Z,99447.16
2022-08-31T07:52:31.736Z,99451.09
2022-08-31T07:55:23.488Z,99442.78
2022-08-31T07:58:17.467Z,99449.94
2022-08-31T08:01:06.267Z,99453.50
2022-08-31T08:03:53.587Z,99451.50
2022-08-31T08:07:00.451Z,99449.94
2022-08-31T08:10:14.451Z,99449.94
2022-08-31T08:13:23.254Z,99455.50
2022-08-31T08:16:17.527Z,99457.91
2022-08-31T08:19:08.930Z,99459.88
2022-08-31T08:21:55.390Z,99458.69
2022-08-31T08:24:46.864Z,99459.84
2022-08-31T08:27:54.357Z,99460.25
2022-08-31T08:31:03.107Z,99461.06
2022-08-31T08:33:51.712Z,99462.25
2022-08-31T08:36:37.409Z,99465.78
2022-08-31T08:39:24.594Z,99466.19
2022-08-31T08:42:24.144Z,99472.88
2022-08-31T08:45:10.270Z,99465.78
2022-08-31T08:47:57.020Z,99469.75
2022-08-31T08:50:43.945Z,99472.97
2022-08-31T08:53:38.459Z,99467.81
2022-08-31T08:56:47.670Z,99475.31
2022-08-31T08:59:37.094Z,99470.59
2022-08-31T09:02:45.185Z,99472.97
2022-08-31T09:06:09.663Z,99471.38
2022-08-31T09:09:26.769Z,99470.59
2022-08-31T09:12:44.885Z,99471.44
2022-08-31T09:15:49.150Z,99473.00
2022-08-31T09:18:54.330Z,99478.94
2022-08-31T09:21:56.734Z,99481.31
2022-08-31T09:24:41.816Z,99474.09
2022-08-31T09:27:59.753Z,99475.66
2022-08-31T09:30:45.101Z,99476.09
2022-08-31T09:33:34.084Z,99474.97
2022-08-31T09:36:23.073Z,99472.88
2022-08-31T09:39:28.878Z,99468.56
2022-08-31T09:42:32.153Z,99472.88
2022-08-31T09:45:29.951Z,99478.88
2022-08-31T09:48:46.398Z,99485.59
2022-08-31T09:51:35.256Z,99473.75
2022-08-31T09:54:47.153Z,99472.19
2022-08-31T09:57:53.981Z,99470.09
2022-08-31T10:00:42.688Z,99471.75
2022-08-31T10:03:31.093Z,99468.19
2022-08-31T10:06:44.564Z,99462.22
2022-08-31T10:09:36.269Z,99466.63
2022-08-31T10:12:47.030Z,99458.63
2022-08-31T10:15:52.268Z,99462.22
2022-08-31T10:18:50.978Z,99455.84
2022-08-31T10:21:52.281Z,99455.84
2022-08-31T10:24:46.608Z,99451.50
2022-08-31T10:27:39.046Z,99459.44
2022-08-31T10:30:35.791Z,99454.66
2022-08-31T10:33:46.834Z,99457.44
2022-08-31T10:36:38.513Z,99449.09
2022-08-31T10:39:39.758Z,99453.44
2022-08-31T10:42:30.104Z,99445.91
2022-08-31T10:45:25.403Z,99439.53
2022-08-31T10:48:13.099Z,99443.50
2022-08-31T10:51:13.246Z,99443.13
2022-08-31T10:54:06.865Z,99447.47
2022-08-31T10:56:59.160Z,99443.91
2022-08-31T10:59:51.852Z,99444.25
2022-08-31T11:03:01.942Z,99442.63
2022-08-31T11:06:01.249Z,99447.41
2022-08-31T11:09:20.371Z,99452.97
2022-08-31T11:12:23.854Z,99445.41
2022-08-31T11:15:39.341Z,99443.50
2022-08-31T11:18:24.778Z,99447.03
2022-08-31T11:21:47.787Z,99443.03
2022-08-31T11:24:37.428Z,99442.25
2022-08-31T11:27:27.240Z,99438.25
2022-08-31T11:30:31.703Z,99441.41
2022-08-31T11:33:28.117Z,99444.63
2022-08-31T11:36:42.228Z,99435.06
2022-08-31T11:39:33.738Z,99441.84
2022-08-31T11:42:19.008Z,99435.16
2022-08-31T11:45:28.788Z,99439.13
2022-08-31T11:48:53.765Z,99438.72
2022-08-31T11:51:42.846Z,99445.03
2022-08-31T11:54:27.879Z,99434.34
2022-08-31T11:57:18.924Z,99439.13
2022-08-31T12:00:19.267Z,99433.16
2022-08-31T12:03:09.392Z,99442.69
2022-08-31T12:05:57.849Z,99438.72
2022-08-31T12:08:54.603Z,99435.16
2022-08-31T12:11:55.529Z,99431.56
2022-08-31T12:14:56.684Z,99431.56
2022-08-31T12:17:44.347Z,99426.38
2022-08-31T12:21:22.512Z,99431.94
2022-08-31T12:24:18.916Z,99422.44
2022-08-31T12:27:45.954Z,99417.66
2022-08-31T12:30:31.344Z,99415.72
2022-08-31T12:33:23.179Z,99411.81
2022-08-31T12:36:25.231Z,99414.50
2022-08-31T12:39:12.554Z,99417.28
2022-08-31T12:42:04.692Z,99418.50
2022-08-31T12:44:52.333Z,99419.66
2022-08-31T12:48:01.767Z,99410.53
2022-08-31T12:50:52.669Z,99413.69
2022-08-31T12:53:53.832Z,99418.03
2022-08-31T12:56:54.516Z,99411.63
2022-08-31T13:00:00.444Z,99407.22
2022-08-31T13:02:51.536Z,99411.56
2022-08-31T13:05:39.102Z,99412.69
2022-08-31T13:08:25.950Z,99414.66
2022-08-31T13:11:26.399Z,99413.81
2022-08-31T13:14:25.157Z,99413.38
2022-08-31T13:17:16.056Z,99406.19
2022-08-31T13:20:01.735Z,99399.03
2022-08-31T13:22:57.163Z,99398.13
2022-08-31T13:25:43.258Z,99401.22
2022-08-31T13:28:33.168Z,99397.22
2022-08-31T13:31:22.940Z,99388.50
2022-08-31T13:34:09.645Z,99392.09
2022-08-31T13:36:59.987Z,99388.88
2022-08-31T13:39:46.924Z,99391.97
2022-08-31T13:42:41.273Z,99396.25
2022-08-31T13:45:31.411Z,99397.47
2022-08-31T13:48:33.692Z,99393.09
2022-08-31T13:51:20.870Z,99382.34
2022-08-31T13:54:14.179Z,99390.28
2022-08-31T13:57:16.574Z,99393.41
2022-08-31T14:00:35.300Z,99392.56
2022-08-31T14:03:41.012Z,99391.78
2022-08-31T14:06:32.194Z,99385.41
2022-08-31T14:09:19.129Z,99385.41
2022-08-31T14:12:05.341Z,99380.16
2022-08-31T14:14:50.694Z,99381.38
2022-08-31T14:17:41.636Z,99388.50
2022-08-31T14:20:36.862Z,99395.63
2022-08-31T14:23:25.392Z,99389.28
2022-08-31T14:26:22.884Z,99389.22
2022-08-31T14:29:16.544Z,99389.56
2022-08-31T14:32:04.673Z,99377.22
2022-08-31T14:34:51.347Z,99381.59
2022-08-31T14:37:38.287Z,99378.00
2022-08-31T14:40:23.633Z,99377.66
2022-08-31T14:43:13.400Z,99375.59
2022-08-31T14:45:58.809Z,99371.66
2022-08-31T14:48:44.798Z,99382.44
2022-08-31T14:51:30.769Z,99382.06
2022-08-31T14:54:17.177Z,99374.06
2022-08-31T14:57:16.005Z,99378.44
2022-08-31T15:00:03.872Z,99380.38
2022-08-31T15:02:53.538Z,99370.09
2022-08-31T15:05:40.035Z,99369.66
2022-08-31T15:08:37.909Z,99366.88
2022-08-31T15:11:24.133Z,99366.09
2022-08-31T15:14:12.622Z,99362.09
2022-08-31T15:17:01.343Z,99368.09
2022-08-31T15:19:48.154Z,99374.78
2022-08-31T15:22:40.572Z,99367.66
2022-08-31T15:25:26.297Z,99370.84
2022-08-31T15:28:11.448Z,99368.41
2022-08-31T15:30:57.867Z,99372.00
2022-08-31T15:33:49.250Z,99366.09
2022-08-31T15:36:35.970Z,99370.84
2022-08-31T15:39:27.433Z,99363.66
2022-08-31T15:42:13.938Z,99368.41
2022-08-31T15:45:00.502Z,99368.41
2022-08-31T15:48:04.924Z,99355.66
2022-08-31T15:51:00.759Z,99363.19
2022-08-31T15:54:06.126Z,99359.22
2022-08-31T15:56:54.389Z,99362.00
2022-08-31T15:59:43.233Z,99362.00
2022-08-31T16:02:37.393Z,99363.19
2022-08-31T16:05:35.740Z,99363.13
2022-08-31T16:08:24.578Z,99354.41
2022-08-31T16:11:11.617Z,99360.75
2022-08-31T16:14:01.382Z,99356.44
2022-08-31T16:16:53.388Z,99357.63
2022-08-31T16:19:40.153Z,99354.41
2022-08-31T16:22:30.569Z,99346.06
2022-08-31T16:25:17.690Z,99350.06
2022-08-31T16:28:06.311Z,99362.78
2022-08-31T16:30:52.144Z,99357.19
2022-08-31T16:33:41.838Z,99355.19
2022-08-31T16:36:28.497Z,99354.78
2022-08-31T16:39:14.553Z,99358.34
2022-08-31T16:41:59.877Z,99358.69
2022-08-31T16:44:48.102Z,99351.56
2022-08-31T16:47:33.745Z,99343.59
2022-08-31T16:50:19.313Z,99353.91
2022-08-31T16:53:04.865Z,99352.72
2022-08-31T16:55:50.299Z,99353.13
2022-08-31T16:58:51.728Z,99344.41
2022-08-31T17:01:41.262Z,99347.22
2022-08-31T17:04:51.168Z,99349.56
2022-08-31T17:07:32.485Z,99355.91
2022-08-31T17:10:18.635Z,99354.34
2022-08-31T17:13:04.142Z,99357.50
2022-08-31T17:15:49.427Z,99358.28
2022-08-31T17:18:34.833Z,99364.13
2022-08-31T17:21:25.022Z,99366.53
2022-08-31T17:24:14.913Z,99361.34
2022-08-31T17:27:04.432Z,99371.28
2022-08-31T17:29:51.960Z,99368.53
2022-08-31T17:32:44.731Z,99376.13
2022-08-31T17:35:32.000Z,99377.34
2022-08-31T17:38:18.351Z,99379.31
2022-08-31T17:41:08.104Z,99367.06
2022-08-31T17:43:59.071Z,99378.91
2022-08-31T17:46:47.412Z,99380.13
2022-08-31T17:49:37.972Z,99379.81
2022-08-31T17:52:23.762Z,99385.75
2022-08-31T17:55:09.288Z,99387.75
2022-08-31T17:57:54.747Z,99385.34
2022-08-31T18:00:40.249Z,99387.41
2022-08-31T18:03:25.747Z,99387.41
2022-08-31T18:06:11.298Z,99389.47
2022-08-31T18:08:58.989Z,99384.75
2022-08-31T18:11:47.776Z,99397.88
2022-08-31T18:14:35.780Z,99393.50
2022-08-31T18:17:22.443Z,99396.69
2022-08-31T18:20:08.434Z,99405.41
2022-08-31T18:22:54.077Z,99405.03
2022-08-31T18:25:40.896Z,99409.84
2022-08-31T18:28:26.270Z,99412.19
2022-08-31T18:31:11.834Z,99413.84
2022-08-31T18:34:00.824Z,99415.81
2022-08-31T18:36:46.690Z,99415.03
2022-08-31T18:39:52.506Z,99418.25
2022-08-31T18:42:57.207Z,99422.75
2022-08-31T18:45:48.138Z,99425.88
2022-08-31T18:48:33.744Z,99420.75
2022-08-31T18:51:23.257Z,99424.31
2022-08-31T18:54:09.026Z,99424.34
2022-08-31T18:56:54.330Z,99423.56
2022-08-31T18:59:39.736Z,99430.38
2022-08-31T19:02:28.073Z,99428.78
2022-08-31T19:05:14.648Z,99421.28
2022-08-31T19:08:00.536Z,99416.50
2022-08-31T19:10:46.879Z,99432.09
2022-08-31T19:13:35.296Z,99426.22
2022-08-31T19:16:26.801Z,99429.41
2022-08-31T19:19:13.206Z,99427.81
2022-08-31T19:21:58.679Z,99432.59
2022-08-31T19:24:44.207Z,99431.03
2022-08-31T19:27:29.683Z,99426.31
2022-08-31T19:30:15.256Z,99424.75
2022-08-31T19:33:03.635Z,99427.94
2022-08-31T19:35:58.199Z,99423.97
2022-08-31T19:38:49.132Z,99428.38
2022-08-31T19:41:36.096Z,99428.81
2022-08-31T19:44:22.210Z,99425.25
2022-08-31T19:47:24.458Z,99423.66
2022-08-31T19:50:15.056Z,99430.44
2022-08-31T19:53:01.699Z,99422.16
2022-08-31T19:55:50.030Z,99421.78
2022-08-31T19:58:36.064Z,99423.38
2022-08-31T20:01:25.377Z,99421.41
2022-08-31T20:04:16.706Z,99430.53
2022-08-31T20:07:07.062Z,99428.56
2022-08-31T20:09:55.210Z,99422.63
2022-08-31T20:12:42.752Z,99420.25
2022-08-31T20:15:28.153Z,99420.25
2022-08-31T20:18:13.647Z,99420.69
2022-08-31T20:21:01.057Z,99419.53
2022-08-31T20:23:48.448Z,99421.91
2022-08-31T20:26:47.496Z,99426.31
2022-08-31T20:29:38.790Z,99424.72
2022-08-31T20:32:25.854Z,99427.94
2022-08-31T20:35:11.067Z,99431.50
2022-08-31T20:37:56.476Z,99425.16
2022-08-31T20:40:43.386Z,99422.03
2022-08-31T20:43:35.311Z,99418.09
2022-08-31T20:46:39.358Z,99423.66
2022-08-31T20:49:26.707Z,99423.66
2022-08-31T20:52:14.421Z,99434.78
2022-08-31T20:55:02.755Z,99437.97
2022-08-31T20:57:49.225Z,99430.03
2022-08-31T21:00:36.380Z,99429.25
2022-08-31T21:03:22.140Z,99436.81
2022-08-31T21:06:11.608Z,99427.69
2022-08-31T21:08:57.261Z,99427.69
2022-08-31T21:11:43.703Z,99426.13
2022-08-31T21:14:29.447Z,99426.97
2022-08-31T21:17:15.937Z,99435.66
2022-08-31T21:20:01.267Z,99429.75
2022-08-31T21:22:46.871Z,99436.50
2022-08-31T21:25:32.163Z,99428.16
2022-08-31T21:28:18.600Z,99429.38
2022-08-31T21:31:18.238Z,99427.78
2022-08-31T21:34:03.873Z,99434.16
2022-08-31T21:36:50.149Z,99428.22
2022-08-31T21:39:35.700Z,99432.19
2022-08-31T21:42:21.333Z,99438.16
2022-08-31T21:45:07.400Z,99425.84
2022-08-31T21:47:52.910Z,99434.59
2022-08-31T21:50:38.426Z,99429.03
2022-08-31T21:53:25.869Z,99433.44
2022-08-31T21:56:11.782Z,99437.00
2022-08-31T21:58:59.218Z,99440.22
2022-08-31T22:01:45.291Z,99435.84
2022-08-31T22:04:32.136Z,99438.63
2022-08-31T22:07:17.544Z,99438.25
2022-08-31T22:10:02.782Z,99443.81
2022-08-31T22:12:48.171Z,99435.47
2022-08-31T22:15:36.790Z,99438.25
2022-08-31T22:21:31.026Z,99441.88
2022-08-31T22:24:27.650Z,99437.53
2022-08-31T22:27:13.561Z,99442.72
2022-08-31T22:29:58.997Z,99439.94
2022-08-31T22:32:47.949Z,99434.03
2022-08-31T22:35:38.898Z,99436.81
2022-08-31T22:38:24.812Z,99429.25
2022-08-31T22:41:12.239Z,99438.00
2022-08-31T22:43:57.732Z,99430.88
2022-08-31T22:46:44.207Z,99431.66
2022-08-31T22:49:29.679Z,99428.09
2022-08-31T22:52:17.370Z,99427.72
2022-08-31T22:55:03.905Z,99431.69
2022-08-31T22:57:49.646Z,99428.91
2022-08-31T23:00:35.435Z,99437.69
2022-08-31T23:03:22.112Z,99434.09
2022-08-31T23:06:07.701Z,99438.47
2022-08-31T23:08:55.630Z,99435.31
2022-08-31T23:11:41.299Z,99435.31
2022-08-31T23:14:27.715Z,99445.28
2022-08-31T23:17:13.830Z,99439.72
2022-08-31T23:20:02.842Z,99436.16
2022-08-31T23:22:49.787Z,99433.03
2022-08-31T23:25:35.438Z,99429.88
2022-08-31T23:28:20.779Z,99427.09
2022-08-31T23:31:09.894Z,99423.53
2022-08-31T23:33:55.398Z,99422.72
2022-08-31T23:36:48.804Z,99407.66
2022-08-31T23:39:35.617Z,99417.97
2022-08-31T23:42:23.172Z,99425.13
2022-08-31T23:45:10.049Z,99414.84
2022-08-31T23:47:57.763Z,99416.78
2022-08-31T23:50:43.022Z,99407.31
2022-08-31T23:53:28.234Z,99407.31
2022-08-31T23:56:13.556Z,99410.91
2022-08-31T23:59:01.137Z,99407.75
